Beaver, Oregon
Current Conditions -  °F | °C
As of 7:15 PM on Friday 21 Nov 2014 (Local Time) from KTMK Reporting Station
Moderate Rain Moderate Rain  
Wind Chill: 54°   Ceiling: 1300
Heat Index: 54°   Visibility: 5mi
Dew Point: 54°   Wind: 8mph
Humidity: 100%   Direction: 260°W
Pressure: 29.54"   Gusts: NA
Location:  45.28°N, 123.83°W
Report Text: KTMK 220315Z AUTO 26007KT 5SM RA BKN013 OVC017 12/12 A2954 RMK AO2 P0003
Loading
Personal Weather Stations






























Interactive Weather Map New forecast layout! Learn more

10-Day Weather Forecast

Advertisements
Track Severe Weather on mobile